createdAt,value
2023-03-25T00:02:58.300Z,0.85
2023-03-25T00:08:00.092Z,0.82
2023-03-25T00:13:05.804Z,1.10
2023-03-25T00:18:07.668Z,0.95
2023-03-25T00:23:09.709Z,1.20
2023-03-25T00:28:12.420Z,1.30
2023-03-25T00:33:14.452Z,0.90
2023-03-25T00:38:16.482Z,1.33
2023-03-25T00:43:18.696Z,2.10
2023-03-25T00:48:20.546Z,1.83
2023-03-25T00:53:22.481Z,1.20
2023-03-25T00:58:24.306Z,1.42
2023-03-25T01:03:29.248Z,1.50
2023-03-25T01:08:32.151Z,1.23
2023-03-25T01:13:34.464Z,1.25
2023-03-25T01:18:38.122Z,1.33
2023-03-25T01:23:39.996Z,1.52
2023-03-25T01:28:44.294Z,1.20
2023-03-25T01:33:46.261Z,1.02
2023-03-25T01:38:48.415Z,1.08
2023-03-25T01:44:29.844Z,1.27
2023-03-25T01:49:38.939Z,1.58
2023-03-25T01:54:42.169Z,1.23
2023-03-25T01:59:44.272Z,1.00
2023-03-25T02:05:07.991Z,1.25
2023-03-25T02:10:12.090Z,0.98
2023-03-25T02:15:18.126Z,1.42
2023-03-25T02:20:57.672Z,1.00
2023-03-25T02:26:36.691Z,0.98
2023-03-25T02:32:20.509Z,1.40
2023-03-25T02:37:47.061Z,0.88
2023-03-25T02:43:02.418Z,1.20
2023-03-25T02:48:11.196Z,1.05
2023-03-25T02:58:22.729Z,1.13
2023-03-25T03:03:27.410Z,1.35
2023-03-25T03:08:49.256Z,1.23
2023-03-25T03:13:57.819Z,1.50
2023-03-25T03:19:24.422Z,1.05
2023-03-25T03:24:38.418Z,0.90
2023-03-25T03:29:46.926Z,0.80
2023-03-25T03:34:53.128Z,0.70
2023-03-25T03:39:58.061Z,0.77
2023-03-25T03:45:13.986Z,0.90
2023-03-25T03:50:23.722Z,0.73
2023-03-25T03:55:39.401Z,0.73
2023-03-25T04:01:03.281Z,0.68
2023-03-25T04:06:21.762Z,0.68
2023-03-25T04:11:28.214Z,0.73
2023-03-25T04:16:34.701Z,0.70
2023-03-25T04:21:37.813Z,0.60
2023-03-25T04:26:39.669Z,0.70
2023-03-25T04:31:50.549Z,0.50
2023-03-25T04:36:52.747Z,1.05
2023-03-25T04:41:54.703Z,0.70
2023-03-25T04:46:56.592Z,0.55
2023-03-25T04:51:59.366Z,0.93
2023-03-25T04:57:01.661Z,0.60
2023-03-25T05:02:07.903Z,0.30
2023-03-25T05:07:09.958Z,0.50
2023-03-25T05:12:12.160Z,0.40
2023-03-25T05:17:14.206Z,0.40
2023-03-25T05:22:16.024Z,0.50
2023-03-25T05:27:20.362Z,0.40
2023-03-25T05:32:22.926Z,0.40
2023-03-25T05:37:24.684Z,0.60
2023-03-25T05:42:27.748Z,0.40
2023-03-25T05:47:29.579Z,0.40
2023-03-25T05:52:31.523Z,0.47
2023-03-25T05:57:33.605Z,0.25
2023-03-25T06:02:39.106Z,0.30
2023-03-25T06:07:49.992Z,0.47
2023-03-25T06:12:54.446Z,0.35
2023-03-25T06:17:57.421Z,0.60
2023-03-25T06:22:59.462Z,0.52
2023-03-25T06:28:03.812Z,0.77
2023-03-25T06:33:06.247Z,0.50
2023-03-25T06:38:11.478Z,0.55
2023-03-25T06:43:34.520Z,0.63
2023-03-25T06:48:51.938Z,0.77
2023-03-25T06:53:53.744Z,0.40
2023-03-25T06:58:55.660Z,0.40
2023-03-25T07:03:57.491Z,0.60
2023-03-25T07:08:59.322Z,0.45
2023-03-25T07:14:01.248Z,0.70
2023-03-25T07:19:03.366Z,0.70
2023-03-25T07:24:06.020Z,0.30
2023-03-25T07:29:08.053Z,0.60
2023-03-25T07:34:10.550Z,0.60
2023-03-25T07:39:12.740Z,0.77
2023-03-25T07:44:18.141Z,0.47
2023-03-25T07:49:20.338Z,0.57
2023-03-25T07:54:24.512Z,0.50
2023-03-25T07:59:29.242Z,0.40
2023-03-25T08:04:32.980Z,0.68
2023-03-25T08:09:35.423Z,0.98
2023-03-25T08:14:37.266Z,0.60
2023-03-25T08:19:39.162Z,0.65
2023-03-25T08:24:41.658Z,1.10
2023-03-25T08:29:44.679Z,0.68
2023-03-25T08:34:47.015Z,0.52
2023-03-25T08:39:50.655Z,0.40
2023-03-25T08:44:52.826Z,0.50
2023-03-25T08:49:54.915Z,0.50
2023-03-25T08:54:56.748Z,0.57
2023-03-25T08:59:58.719Z,0.50
2023-03-25T09:05:00.855Z,0.30
2023-03-25T09:10:04.186Z,0.50
2023-03-25T09:15:06.682Z,0.40
2023-03-25T09:20:10.733Z,0.47
2023-03-25T09:25:14.222Z,0.50
2023-03-25T09:30:16.389Z,0.52
2023-03-25T09:35:18.617Z,0.43
2023-03-25T09:40:21.962Z,0.47
2023-03-25T09:45:32.984Z,0.40
2023-03-25T09:50:37.043Z,0.60
2023-03-25T09:55:42.830Z,0.50
2023-03-25T10:00:47.128Z,0.90
2023-03-25T10:06:03.840Z,0.85
2023-03-25T10:11:16.015Z,0.82
2023-03-25T10:16:33.654Z,0.52
2023-03-25T10:21:58.186Z,0.52
2023-03-25T10:27:05.610Z,0.55
2023-03-25T10:32:17.220Z,0.50
2023-03-25T10:37:44.736Z,0.28
2023-03-25T10:43:25.569Z,0.53
2023-03-25T10:48:29.619Z,0.50
2023-03-25T10:53:31.433Z,0.60
2023-03-25T10:58:37.361Z,0.40
2023-03-25T11:03:42.037Z,0.40
2023-03-25T11:09:09.155Z,0.50
2023-03-25T11:14:12.366Z,0.40
2023-03-25T11:19:31.741Z,0.50
2023-03-25T11:24:40.423Z,0.63
2023-03-25T11:29:42.352Z,0.60
2023-03-25T11:34:48.329Z,0.50
2023-03-25T11:39:55.663Z,0.50
2023-03-25T11:44:59.744Z,0.30
2023-03-25T11:50:02.072Z,0.50
2023-03-25T11:55:04.846Z,0.43
2023-03-25T12:00:36.664Z,0.65
2023-03-25T12:05:39.490Z,0.30
2023-03-25T12:10:51.033Z,0.40
2023-03-25T12:15:53.800Z,0.30
2023-03-25T12:21:27.334Z,0.70
2023-03-25T12:26:50.865Z,0.57
2023-03-25T12:32:20.263Z,0.57
2023-03-25T12:37:44.557Z,0.30
2023-03-25T12:42:57.328Z,0.50
2023-03-25T12:48:25.575Z,0.60
2023-03-25T12:53:42.193Z,0.20
2023-03-25T12:59:07.426Z,0.30
2023-03-25T13:04:12.258Z,0.28
2023-03-25T13:09:24.436Z,0.32
2023-03-25T13:15:00.986Z,0.50
2023-03-25T13:20:09.751Z,0.40
2023-03-25T13:25:43.005Z,0.50
2023-03-25T13:30:48.266Z,0.30
2023-03-25T13:35:58.516Z,0.40
2023-03-25T13:41:19.501Z,0.50
2023-03-25T13:46:36.533Z,0.40
2023-03-25T13:51:39.250Z,0.60
2023-03-25T13:57:16.294Z,0.57
2023-03-25T14:02:46.988Z,0.63
2023-03-25T14:08:13.465Z,0.50
2023-03-25T14:13:22.278Z,0.50
2023-03-25T14:18:24.293Z,0.47
2023-03-25T14:23:32.225Z,0.80
2023-03-25T14:28:38.997Z,0.40
2023-03-25T14:34:02.752Z,0.60
2023-03-25T14:39:10.736Z,0.65
2023-03-25T14:44:19.707Z,0.22
2023-03-25T14:49:23.563Z,0.40
2023-03-25T14:54:30.480Z,0.70
2023-03-25T14:59:43.519Z,0.50
2023-03-25T15:04:46.721Z,0.30
2023-03-25T15:09:54.257Z,0.40
2023-03-25T15:15:08.572Z,0.30
2023-03-25T15:20:11.795Z,0.50
2023-03-25T15:25:19.743Z,0.38
2023-03-25T15:30:31.836Z,0.70
2023-03-25T15:35:45.229Z,0.40
2023-03-25T15:40:56.127Z,0.57
2023-03-25T15:46:28.217Z,0.40
2023-03-25T15:51:37.897Z,0.50
2023-03-25T15:56:45.958Z,0.50
2023-03-25T16:01:51.692Z,0.30
2023-03-25T16:06:57.403Z,0.50
2023-03-25T16:12:00.910Z,0.85
2023-03-25T16:17:07.398Z,0.60
2023-03-25T16:22:17.475Z,0.63
2023-03-25T16:27:30.826Z,0.60
2023-03-25T16:32:35.959Z,0.40
2023-03-25T16:37:40.058Z,0.60
2023-03-25T16:42:42.279Z,0.75
2023-03-25T16:47:46.354Z,0.75
2023-03-25T16:52:51.445Z,0.50
2023-03-25T16:57:53.560Z,0.55
2023-03-25T17:02:57.136Z,0.77
2023-03-25T17:08:10.590Z,0.90
2023-03-25T17:13:19.657Z,0.60
2023-03-25T17:18:27.785Z,0.52
2023-03-25T17:23:44.131Z,0.70
2023-03-25T17:28:58.185Z,0.30
2023-03-25T17:34:30.510Z,1.10
2023-03-25T17:39:34.034Z,1.20
2023-03-25T17:44:39.665Z,0.98
2023-03-25T17:49:41.689Z,1.13
2023-03-25T17:54:43.745Z,0.85
2023-03-25T17:59:46.817Z,0.80
2023-03-25T18:04:48.773Z,0.98
2023-03-25T18:09:50.725Z,0.80
2023-03-25T18:14:52.687Z,0.70
2023-03-25T18:19:54.458Z,1.00
2023-03-25T18:24:58.988Z,1.60
2023-03-25T18:30:01.247Z,1.10
2023-03-25T18:35:04.041Z,0.90
2023-03-25T18:40:25.256Z,0.90
2023-03-25T18:45:27.563Z,1.33
2023-03-25T18:50:35.427Z,1.80
2023-03-25T18:55:37.469Z,0.82
2023-03-25T19:00:40.445Z,0.98
2023-03-25T19:05:43.250Z,0.60
2023-03-25T19:10:45.709Z,0.70
2023-03-25T19:15:47.541Z,0.73
2023-03-25T19:20:50.682Z,0.82
2023-03-25T19:25:53.706Z,1.80
2023-03-25T19:31:00.579Z,0.70
2023-03-25T19:36:03.971Z,0.73
2023-03-25T19:41:11.566Z,0.70
2023-03-25T19:46:13.458Z,0.98
2023-03-25T19:51:15.399Z,0.65
2023-03-25T19:56:17.324Z,0.60
2023-03-25T20:01:19.118Z,0.55
2023-03-25T20:06:21.634Z,0.50
2023-03-25T20:11:23.400Z,0.70
2023-03-25T20:16:25.799Z,0.50
2023-03-25T20:21:27.983Z,0.68
2023-03-25T20:26:30.126Z,0.82
2023-03-25T20:31:34.403Z,0.40
2023-03-25T20:36:36.391Z,0.60
2023-03-25T20:41:38.210Z,0.50
2023-03-25T20:46:41.241Z,0.50
2023-03-25T20:51:43.544Z,0.65
2023-03-25T20:56:46.574Z,0.57
2023-03-25T21:01:53.614Z,0.90
2023-03-25T21:06:55.844Z,0.70
2023-03-25T21:11:57.699Z,0.68
2023-03-25T21:16:59.566Z,0.80
2023-03-25T21:22:01.853Z,0.60
2023-03-25T21:27:06.934Z,0.90
2023-03-25T21:32:14.118Z,0.80
2023-03-25T21:37:16.147Z,0.80
2023-03-25T21:42:18.088Z,0.80
2023-03-25T21:47:19.882Z,1.33
2023-03-25T21:52:22.346Z,0.80
2023-03-25T21:57:24.269Z,1.00
2023-03-25T22:02:29.006Z,0.55
2023-03-25T22:07:31.097Z,0.80
2023-03-25T22:12:33.141Z,0.77
2023-03-25T22:17:35.233Z,1.30
2023-03-25T22:22:37.161Z,0.80
2023-03-25T22:27:39.004Z,0.98
2023-03-25T22:32:44.106Z,1.20
2023-03-25T22:37:46.446Z,1.13
2023-03-25T22:42:48.382Z,0.95
2023-03-25T22:47:50.505Z,0.68
2023-03-25T22:52:52.480Z,0.75
2023-03-25T22:57:54.302Z,0.93
2023-03-25T23:02:57.336Z,0.80
2023-03-25T23:07:59.385Z,0.90
2023-03-25T23:13:01.459Z,0.73
2023-03-25T23:18:04.076Z,0.82
2023-03-25T23:23:06.399Z,0.80
2023-03-25T23:28:10.192Z,1.00
2023-03-25T23:33:12.019Z,0.90
2023-03-25T23:38:14.409Z,0.80
2023-03-25T23:43:16.466Z,0.93
2023-03-25T23:48:18.290Z,0.60
2023-03-25T23:53:21.598Z,0.77
2023-03-25T23:58:25.539Z,0.60
